Time;durP1;ratioP1;P1;durP2;ratioP2;P2;SDS_P1;SDS_P2;PMS_P1;PMS_P2;Temp;Humidity;BMP_temperature;BMP_pressure;BME280_temperature;BME280_humidity;BME280_pressure;Samples;Min_cycle;Max_cycle;Signal;HPM_P1;HPM_P2
2023/03/17 00:00:41;;;;;;;7.63;4.90;;;12.00;55.80;;;;;;6247063;23;20004;-76
2023/03/17 00:03:10;;;;;;;6.65;4.85;;;12.00;55.50;;;;;;6219604;23;20421;-76
2023/03/17 00:05:35;;;;;;;7.57;4.70;;;12.00;55.90;;;;;;6245929;23;20011;-76
2023/03/17 00:08:14;;;;;;;6.35;4.00;;;12.00;56.10;;;;;;6246403;23;20004;-76
2023/03/17 00:10:40;;;;;;;7.85;4.55;;;12.00;56.30;;;;;;6246900;23;20005;-76
2023/03/17 00:13:05;;;;;;;7.97;4.70;;;11.90;56.10;;;;;;6246663;23;20403;-76
2023/03/17 00:15:32;;;;;;;7.50;4.18;;;11.80;56.10;;;;;;6217562;23;20430;-76
2023/03/17 00:17:57;;;;;;;8.77;5.00;;;11.90;56.80;;;;;;6242937;23;20015;-76
2023/03/17 00:20:29;;;;;;;6.03;4.00;;;11.90;56.50;;;;;;6243751;23;20000;-76
2023/03/17 00:22:58;;;;;;;6.68;4.25;;;11.90;56.30;;;;;;6243283;23;20119;-76
2023/03/17 00:25:27;;;;;;;7.00;4.03;;;11.90;56.10;;;;;;6245227;23;20509;-77
2023/03/17 00:27:54;;;;;;;6.70;3.83;;;11.90;56.10;;;;;;6218388;23;20011;-76
2023/03/17 00:30:21;;;;;;;7.18;4.22;;;11.90;56.40;;;;;;6246010;23;19996;-77
2023/03/17 00:32:50;;;;;;;7.68;3.75;;;11.90;56.70;;;;;;6245406;23;20354;-77
2023/03/17 00:35:22;;;;;;;7.85;3.80;;;11.90;56.30;;;;;;6245171;23;20004;-77
2023/03/17 00:37:51;;;;;;;5.22;3.80;;;11.90;56.70;;;;;;6245482;23;20011;-77
2023/03/17 00:40:20;;;;;;;5.72;3.78;;;11.90;56.70;;;;;;6245540;23;20004;-77
2023/03/17 00:42:47;;;;;;;5.78;3.60;;;11.90;56.60;;;;;;6246142;23;20079;-77
2023/03/17 00:45:14;;;;;;;5.57;3.70;;;11.90;56.80;;;;;;6246005;23;20001;-77
2023/03/17 00:47:40;;;;;;;5.60;3.30;;;11.90;56.60;;;;;;6245181;23;20633;-77
2023/03/17 00:50:10;;;;;;;7.15;3.38;;;11.90;56.50;;;;;;6245064;23;20000;-77
2023/03/17 00:52:35;;;;;;;6.38;3.70;;;11.90;56.30;;;;;;6246044;23;20050;-77
2023/03/17 00:55:01;;;;;;;6.20;3.80;;;11.90;56.70;;;;;;6245532;23;20047;-77
2023/03/17 00:57:27;;;;;;;5.68;3.53;;;11.90;57.00;;;;;;6245682;23;20350;-77
2023/03/17 00:59:52;;;;;;;4.57;2.70;;;11.90;57.20;;;;;;6245392;23;20026;-77
2023/03/17 01:02:18;;;;;;;5.20;2.85;;;11.90;57.10;;;;;;6244751;23;20397;-77
2023/03/17 01:04:44;;;;;;;5.13;2.35;;;11.80;56.90;;;;;;6245149;23;20419;-77
2023/03/17 01:07:10;;;;;;;4.90;2.10;;;11.80;56.80;;;;;;6245721;23;20028;-76
2023/03/17 01:09:37;;;;;;;4.82;2.55;;;11.80;56.80;;;;;;6245484;23;20004;-77
2023/03/17 01:12:03;;;;;;;5.43;2.55;;;11.80;56.80;;;;;;6245054;23;20070;-77
2023/03/17 01:14:28;;;;;;;5.80;2.45;;;11.80;56.30;;;;;;6245429;23;20050;-76
2023/03/17 01:16:54;;;;;;;6.80;2.53;;;11.80;56.40;;;;;;6245260;23;20012;-76
2023/03/17 01:19:20;;;;;;;3.85;2.47;;;11.80;56.90;;;;;;6245742;23;20130;-76
2023/03/17 01:21:46;;;;;;;5.07;2.10;;;11.80;57.20;;;;;;6245638;23;20067;-76
2023/03/17 01:24:13;;;;;;;3.67;2.30;;;11.80;57.00;;;;;;6218165;23;20008;-76
2023/03/17 01:26:39;;;;;;;4.47;2.40;;;11.80;57.60;;;;;;6244825;23;20042;-77
2023/03/17 01:29:06;;;;;;;4.40;2.72;;;11.80;58.00;;;;;;6246397;23;20004;-77
2023/03/17 01:31:32;;;;;;;5.03;2.53;;;11.80;57.70;;;;;;6243124;23;20107;-77
2023/03/17 01:33:58;;;;;;;5.57;2.90;;;11.80;58.20;;;;;;6245659;23;20638;-76
2023/03/17 01:36:24;;;;;;;4.57;2.63;;;11.80;58.10;;;;;;6244997;23;20031;-76
2023/03/17 01:38:50;;;;;;;4.15;2.60;;;11.70;58.10;;;;;;6244580;23;20011;-76
2023/03/17 01:41:19;;;;;;;4.60;2.90;;;11.70;58.20;;;;;;6245336;23;20054;-77
2023/03/17 01:43:45;;;;;;;5.30;2.53;;;11.70;58.50;;;;;;6245311;23;20008;-76
2023/03/17 01:46:32;;;;;;;5.25;2.65;;;11.70;58.50;;;;;;6244628;23;20012;-77
2023/03/17 01:49:32;;;;;;;5.45;2.70;;;11.70;58.50;;;;;;6245600;23;20000;-77
2023/03/17 01:52:16;;;;;;;7.60;2.60;;;11.70;58.50;;;;;;6245200;23;20020;-76
2023/03/17 01:54:49;;;;;;;3.65;2.47;;;11.70;58.40;;;;;;6245435;23;20006;-76
2023/03/17 01:57:27;;;;;;;6.38;2.83;;;11.70;58.20;;;;;;6245160;23;20000;-76
2023/03/17 02:00:13;;;;;;;8.02;3.28;;;11.70;58.00;;;;;;6245301;23;20004;-76
2023/03/17 02:02:44;;;;;;;5.07;2.58;;;11.70;58.40;;;;;;6245101;23;20046;-76
2023/03/17 02:05:13;;;;;;;5.25;2.80;;;11.60;58.80;;;;;;6245568;23;20012;-76
2023/03/17 02:07:44;;;;;;;4.90;2.85;;;11.60;58.40;;;;;;6245686;23;20005;-76
2023/03/17 02:10:12;;;;;;;5.47;3.15;;;11.60;58.90;;;;;;6245369;23;19996;-76
2023/03/17 02:12:40;;;;;;;6.25;3.55;;;11.60;59.00;;;;;;6244909;23;20000;-76
2023/03/17 02:15:07;;;;;;;5.78;3.50;;;11.50;58.80;;;;;;6244029;23;20314;-76
2023/03/17 02:17:33;;;;;;;5.68;3.72;;;11.50;58.60;;;;;;6218440;23;20385;-76
2023/03/17 02:20:14;;;;;;;7.10;4.18;;;11.40;58.00;;;;;;6245408;23;20308;-76
2023/03/17 02:22:41;;;;;;;5.55;3.70;;;11.40;59.00;;;;;;6244856;23;20000;-76
2023/03/17 02:25:06;;;;;;;5.47;3.58;;;11.40;58.70;;;;;;6244569;23;20000;-76
2023/03/17 02:27:37;;;;;;;5.82;3.78;;;11.30;58.80;;;;;;6245275;23;20000;-77
2023/03/17 02:30:06;;;;;;;6.72;3.70;;;11.30;58.80;;;;;;6244092;23;20067;-77
2023/03/17 02:32:35;;;;;;;5.68;4.22;;;11.30;58.90;;;;;;6244763;23;20306;-77
2023/03/17 02:35:01;;;;;;;7.10;4.03;;;10.70;58.50;;;;;;6244831;23;20078;-77
2023/03/17 02:37:27;;;;;;;6.35;4.28;;;11.10;58.80;;;;;;6244744;23;20001;-77
2023/03/17 02:39:52;;;;;;;6.13;4.13;;;11.00;58.20;;;;;;6244360;23;20035;-77
2023/03/17 02:42:19;;;;;;;5.88;4.00;;;11.00;58.80;;;;;;6244352;23;20066;-77
2023/03/17 02:44:44;;;;;;;8.05;4.63;;;11.00;59.00;;;;;;6244127;23;20058;-77
2023/03/17 02:47:11;;;;;;;6.18;4.03;;;10.80;58.70;;;;;;6245703;23;20414;-77
2023/03/17 02:49:38;;;;;;;7.03;4.00;;;10.80;59.10;;;;;;6244295;23;19996;-77
2023/03/17 02:52:04;;;;;;;8.15;4.85;;;10.80;58.70;;;;;;6243683;23;20020;-77
2023/03/17 02:54:30;;;;;;;6.05;4.22;;;10.70;59.20;;;;;;6244479;23;20047;-77
2023/03/17 02:56:56;;;;;;;10.05;4.95;;;10.70;59.30;;;;;;6244287;23;20595;-77
2023/03/17 02:59:22;;;;;;;7.30;5.18;;;10.60;59.10;;;;;;6244632;23;20111;-77
2023/03/17 03:01:49;;;;;;;7.53;5.05;;;10.70;59.60;;;;;;6244969;23;20425;-77
2023/03/17 03:04:15;;;;;;;8.82;4.85;;;10.70;59.50;;;;;;6242980;23;20035;-76
2023/03/17 03:06:41;;;;;;;7.68;5.05;;;10.70;59.40;;;;;;6244513;23;20004;-76
2023/03/17 03:09:07;;;;;;;7.65;5.50;;;10.60;59.30;;;;;;6245159;23;20027;-76
2023/03/17 03:11:33;;;;;;;11.32;5.97;;;10.60;59.30;;;;;;6244360;23;20004;-76
2023/03/17 03:13:59;;;;;;;11.48;5.78;;;10.60;59.30;;;;;;6244986;23;20000;-76
2023/03/17 03:16:25;;;;;;;10.02;5.68;;;10.60;59.10;;;;;;6244705;23;20001;-76
2023/03/17 03:18:50;;;;;;;8.82;5.97;;;10.60;59.00;;;;;;6244291;23;20018;-76
2023/03/17 03:21:16;;;;;;;8.80;6.03;;;10.60;59.10;;;;;;6244732;23;20031;-76
2023/03/17 03:23:42;;;;;;;9.43;6.28;;;10.60;59.20;;;;;;6217537;23;20349;-76
2023/03/17 03:26:08;;;;;;;8.38;5.75;;;10.60;59.10;;;;;;6243846;23;20023;-76
2023/03/17 03:28:33;;;;;;;10.95;6.05;;;10.60;59.20;;;;;;6245117;23;20054;-75
2023/03/17 03:30:59;;;;;;;7.80;5.45;;;10.50;59.20;;;;;;6246663;23;19996;-76
2023/03/17 03:33:25;;;;;;;7.80;5.20;;;10.50;59.20;;;;;;6246148;23;20000;-76
2023/03/17 03:35:51;;;;;;;9.13;5.72;;;10.50;59.20;;;;;;6246685;23;20020;-76
2023/03/17 03:38:17;;;;;;;9.40;6.10;;;10.50;59.40;;;;;;6246217;23;20000;-76
2023/03/17 03:40:44;;;;;;;8.48;5.85;;;10.50;59.40;;;;;;6246031;23;20023;-76
2023/03/17 03:43:10;;;;;;;9.20;6.10;;;10.40;58.90;;;;;;6246268;23;20053;-76
2023/03/17 03:45:35;;;;;;;8.93;6.20;;;10.40;59.40;;;;;;6246453;23;20416;-76
2023/03/17 03:48:01;;;;;;;10.02;5.93;;;10.40;59.50;;;;;;6247064;23;20000;-76
2023/03/17 03:50:27;;;;;;;11.27;6.88;;;10.40;59.60;;;;;;6247355;23;20403;-77
2023/03/17 03:52:52;;;;;;;6.30;5.55;;;10.30;60.00;;;;;;6246545;23;20046;-77
2023/03/17 03:55:18;;;;;;;8.93;6.05;;;10.30;59.80;;;;;;6245743;23;20012;-75
2023/03/17 03:57:44;;;;;;;12.25;7.43;;;10.30;59.80;;;;;;6246596;23;20011;-75
2023/03/17 04:00:12;;;;;;;9.60;6.45;;;10.30;60.10;;;;;;6246239;23;20000;-74
2023/03/17 04:02:40;;;;;;;10.02;6.60;;;10.30;59.90;;;;;;6246121;23;20302;-75
2023/03/17 04:05:08;;;;;;;9.55;7.05;;;10.30;60.20;;;;;;6246882;23;20004;-75
2023/03/17 04:07:34;;;;;;;11.85;7.35;;;10.30;60.20;;;;;;6246822;23;20000;-74
2023/03/17 04:10:00;;;;;;;9.85;6.63;;;10.20;60.20;;;;;;6246038;23;19996;-75
2023/03/17 04:12:26;;;;;;;12.93;8.48;;;10.10;60.30;;;;;;6246621;23;20023;-75
2023/03/17 04:14:52;;;;;;;10.25;6.88;;;10.10;60.40;;;;;;6220320;23;20012;-73
2023/03/17 04:17:17;;;;;;;12.00;7.88;;;10.10;60.70;;;;;;6247050;23;20038;-75
2023/03/17 04:19:43;;;;;;;13.82;7.57;;;;;;;;;;6218977;23;20004;-75
2023/03/17 04:22:10;;;;;;;13.45;8.90;;;10.00;60.60;;;;;;6246465;23;20064;-75
2023/03/17 04:24:36;;;;;;;12.88;8.70;;;9.80;61.40;;;;;;6245463;23;20000;-75
2023/03/17 04:27:03;;;;;;;10.70;7.72;;;9.60;61.90;;;;;;6246195;23;20006;-76
2023/03/17 04:29:29;;;;;;;10.65;8.02;;;9.60;62.80;;;;;;6245903;23;20472;-77
2023/03/17 04:31:55;;;;;;;11.80;7.88;;;9.50;63.10;;;;;;6246387;23;20000;-76
2023/03/17 04:34:21;;;;;;;13.00;8.25;;;9.50;63.70;;;;;;6246439;23;20480;-76
2023/03/17 04:36:48;;;;;;;13.07;7.95;;;9.50;63.90;;;;;;6245385;23;19996;-76
2023/03/17 04:39:14;;;;;;;10.70;7.18;;;9.60;64.30;;;;;;6245174;23;20303;-76
2023/03/17 04:41:40;;;;;;;14.25;9.10;;;9.60;63.90;;;;;;6245705;23;20342;-76
2023/03/17 04:44:06;;;;;;;12.40;7.75;;;9.50;65.20;;;;;;6246187;23;20067;-76
2023/03/17 04:46:33;;;;;;;15.75;10.07;;;;;;;;;;6245478;23;20102;-76
2023/03/17 04:48:59;;;;;;;11.38;7.75;;;9.60;64.90;;;;;;6245408;23;20007;-77
2023/03/17 04:51:25;;;;;;;15.63;8.48;;;9.60;64.20;;;;;;6245522;23;20016;-77
2023/03/17 04:53:51;;;;;;;12.18;7.28;;;9.60;64.50;;;;;;6245409;23;20007;-77
2023/03/17 04:56:17;;;;;;;11.30;7.90;;;9.70;64.80;;;;;;6245181;23;20004;-77
2023/03/17 04:58:43;;;;;;;10.50;7.25;;;9.70;64.40;;;;;;6218841;23;20008;-77
2023/03/17 05:01:09;;;;;;;11.65;7.55;;;9.90;64.80;;;;;;6245224;23;20024;-77
2023/03/17 05:03:35;;;;;;;11.40;7.38;;;9.90;64.60;;;;;;6245845;23;20263;-77
2023/03/17 05:06:03;;;;;;;12.68;8.55;;;10.70;65.00;;;;;;6244768;23;20109;-77
2023/03/17 05:08:29;;;;;;;11.88;7.82;;;10.00;64.60;;;;;;6245422;23;20131;-77
2023/03/17 05:10:56;;;;;;;13.40;8.55;;;10.10;64.40;;;;;;6244936;23;20040;-77
2023/03/17 05:13:23;;;;;;;10.13;7.70;;;10.10;64.80;;;;;;6245787;23;20011;-77
2023/03/17 05:15:50;;;;;;;13.13;8.48;;;10.10;65.10;;;;;;6245461;23;20004;-77
2023/03/17 05:18:17;;;;;;;16.20;8.43;;;10.10;65.20;;;;;;6245391;23;20011;-77
2023/03/17 05:20:43;;;;;;;14.25;9.07;;;10.20;65.10;;;;;;6245072;23;20053;-77
2023/03/17 05:23:09;;;;;;;12.63;8.18;;;10.20;65.10;;;;;;6244534;23;20004;-76
2023/03/17 05:25:35;;;;;;;11.02;8.18;;;10.10;65.10;;;;;;6245004;23;20086;-76
2023/03/17 05:28:01;;;;;;;11.38;7.55;;;10.10;64.90;;;;;;6244899;23;20393;-77
2023/03/17 05:30:27;;;;;;;9.57;6.80;;;10.10;65.00;;;;;;6245511;23;20379;-75
2023/03/17 05:32:53;;;;;;;12.07;8.73;;;10.00;65.50;;;;;;6245219;23;20000;-75
2023/03/17 05:35:19;;;;;;;9.90;7.35;;;10.00;65.60;;;;;;6244905;23;20012;-75
2023/03/17 05:37:45;;;;;;;10.88;8.38;;;10.00;65.70;;;;;;6244803;23;20004;-75
2023/03/17 05:40:13;;;;;;;13.50;8.63;;;10.00;65.90;;;;;;6245262;23;20032;-75
2023/03/17 05:42:40;;;;;;;12.20;9.13;;;9.90;66.30;;;;;;6214430;23;20517;-75
2023/03/17 05:45:06;;;;;;;16.55;9.68;;;9.80;66.70;;;;;;6214802;23;20001;-75
2023/03/17 05:47:32;;;;;;;11.82;8.23;;;9.60;66.80;;;;;;6214735;23;20330;-75
2023/03/17 05:49:59;;;;;;;14.30;10.05;;;9.50;67.10;;;;;;6188865;23;20001;-75
2023/03/17 05:52:25;;;;;;;12.93;7.88;;;9.30;67.90;;;;;;6215029;23;20005;-75
2023/03/17 05:54:52;;;;;;;12.75;8.38;;;9.30;67.60;;;;;;6215166;23;20004;-74
2023/03/17 05:57:18;;;;;;;10.93;8.30;;;9.40;67.50;;;;;;6188356;23;20009;-73
2023/03/17 05:59:44;;;;;;;12.00;8.43;;;9.30;67.90;;;;;;6215358;23;20026;-80
2023/03/17 06:02:10;;;;;;;10.73;8.32;;;9.40;68.00;;;;;;6214829;23;20005;-80
2023/03/17 06:04:37;;;;;;;13.23;8.07;;;9.50;68.10;;;;;;6215620;23;20019;-80
2023/03/17 06:07:03;;;;;;;12.77;7.88;;;9.50;68.00;;;;;;6188888;23;20039;-80
2023/03/17 06:09:32;;;;;;;12.98;8.23;;;9.60;67.20;;;;;;6215352;23;20347;-81
2023/03/17 06:11:58;;;;;;;10.90;7.93;;;9.60;67.60;;;;;;6214372;23;20032;-80
2023/03/17 06:14:24;;;;;;;12.43;8.07;;;9.70;67.30;;;;;;6213403;23;20308;-80
2023/03/17 06:16:50;;;;;;;12.20;8.20;;;9.70;67.20;;;;;;6213519;23;20007;-80
2023/03/17 06:19:16;;;;;;;13.70;9.25;;;;;;;;;;6213437;23;20014;-79
2023/03/17 06:21:42;;;;;;;11.77;8.70;;;9.70;67.10;;;;;;6214092;23;20000;-81
2023/03/17 06:24:08;;;;;;;13.18;8.40;;;9.50;68.20;;;;;;6214016;23;20005;-80
2023/03/17 06:26:34;;;;;;;11.85;8.63;;;9.50;68.00;;;;;;6212939;23;20007;-79
2023/03/17 06:29:00;;;;;;;15.75;9.02;;;9.50;68.30;;;;;;6213463;23;19997;-79
2023/03/17 06:31:26;;;;;;;16.42;9.15;;;9.60;68.20;;;;;;6214872;23;20001;-79
2023/03/17 06:33:52;;;;;;;15.45;10.30;;;9.60;68.20;;;;;;6213647;23;20024;-76
2023/03/17 06:36:17;;;;;;;17.80;11.55;;;9.50;68.50;;;;;;6212922;23;20000;-76
2023/03/17 06:38:44;;;;;;;18.42;10.63;;;9.30;69.80;;;;;;6213748;23;20084;-80
2023/03/17 06:41:10;;;;;;;12.32;8.38;;;9.20;70.40;;;;;;6225075;23;20381;-79
2023/03/17 06:43:36;;;;;;;12.43;8.77;;;9.20;69.50;;;;;;6218527;23;20438;-79
2023/03/17 06:46:02;;;;;;;11.43;8.32;;;9.30;69.60;;;;;;6245148;23;20004;-80
2023/03/17 06:48:27;;;;;;;15.43;8.40;;;9.50;69.70;;;;;;6245114;23;20003;-81
2023/03/17 06:50:53;;;;;;;10.48;7.82;;;9.70;69.40;;;;;;6244047;23;20186;-80
2023/03/17 06:53:20;;;;;;;10.95;8.38;;;9.90;71.50;;;;;;6244749;23;20001;-79
2023/03/17 06:55:47;;;;;;;13.80;8.48;;;9.90;71.10;;;;;;6215597;23;20005;-79
2023/03/17 06:58:14;;;;;;;13.75;8.60;;;;;;;;;;6244875;23;20292;-79
2023/03/17 07:00:40;;;;;;;17.13;9.57;;;10.20;68.60;;;;;;6242464;23;20004;-80
2023/03/17 07:03:06;;;;;;;15.70;8.65;;;10.30;68.80;;;;;;6246659;23;20079;-81
2023/03/17 07:05:32;;;;;;;11.85;7.95;;;10.40;68.10;;;;;;6247203;23;20154;-82
2023/03/17 07:07:58;;;;;;;13.88;7.75;;;10.50;67.90;;;;;;6246738;23;20000;-82
2023/03/17 07:10:26;;;;;;;10.48;7.60;;;;;;;;;;6246826;23;20076;-82
2023/03/17 07:12:52;;;;;;;11.18;7.70;;;10.70;67.40;;;;;;6219473;23;20024;-80
2023/03/17 07:15:17;;;;;;;10.70;7.72;;;10.80;67.70;;;;;;6246816;23;20438;-79
2023/03/17 07:17:45;;;;;;;13.43;8.93;;;10.90;67.00;;;;;;6246880;23;20000;-79
2023/03/17 07:20:12;;;;;;;9.70;7.20;;;10.90;66.50;;;;;;6247334;23;20040;-79
2023/03/17 07:22:39;;;;;;;11.20;7.60;;;10.90;66.90;;;;;;6219876;23;20014;-79
2023/03/17 07:25:05;;;;;;;12.18;7.68;;;10.90;66.80;;;;;;6247428;23;20004;-79
2023/03/17 07:27:31;;;;;;;14.65;8.57;;;11.00;66.80;;;;;;6246840;23;20003;-80
2023/03/17 07:29:59;;;;;;;11.48;8.45;;;11.10;66.90;;;;;;6246147;23;20083;-78
2023/03/17 07:32:25;;;;;;;13.75;8.07;;;11.20;66.80;;;;;;6239352;23;19997;-78
2023/03/17 07:34:54;;;;;;;11.48;8.65;;;11.10;65.90;;;;;;6244226;23;20098;-79
2023/03/17 07:37:20;;;;;;;13.23;8.68;;;11.10;65.80;;;;;;6245116;23;20054;-79
2023/03/17 07:39:47;;;;;;;11.65;7.80;;;11.10;66.80;;;;;;6242466;23;20441;-78
2023/03/17 07:42:14;;;;;;;10.00;7.60;;;11.00;66.00;;;;;;6237392;23;20012;-78
2023/03/17 07:44:40;;;;;;;15.75;8.85;;;11.10;66.80;;;;;;6217700;23;20057;-79
2023/03/17 07:47:07;;;;;;;14.85;9.13;;;11.00;66.60;;;;;;6247320;23;20422;-79
2023/03/17 07:49:33;;;;;;;12.05;9.25;;;10.90;67.20;;;;;;6246977;23;20046;-79
2023/03/17 07:51:59;;;;;;;18.48;10.27;;;11.00;67.10;;;;;;6245811;23;20004;-79
2023/03/17 07:54:26;;;;;;;9.30;7.10;;;10.90;67.20;;;;;;6246828;23;19996;-79
2023/03/17 07:56:52;;;;;;;14.15;8.32;;;11.00;66.90;;;;;;6245557;23;20028;-79
2023/03/17 07:59:19;;;;;;;11.32;8.55;;;;;;;;;;6246564;23;20119;-78
2023/03/17 08:01:46;;;;;;;10.18;7.43;;;;;;;;;;6246601;23;20414;-79
2023/03/17 08:04:12;;;;;;;13.02;8.15;;;11.50;66.30;;;;;;6246828;23;20054;-79
2023/03/17 08:06:41;;;;;;;13.50;9.00;;;11.40;67.10;;;;;;6246449;23;20410;-79
2023/03/17 08:09:13;;;;;;;9.25;6.78;;;11.50;66.50;;;;;;6246964;23;20004;-82
2023/03/17 08:11:38;;;;;;;10.75;6.78;;;11.70;65.60;;;;;;6245240;23;20355;-80
2023/03/17 08:14:05;;;;;;;11.13;7.20;;;11.70;66.10;;;;;;6218232;23;20004;-80
2023/03/17 08:16:31;;;;;;;8.60;6.28;;;11.80;65.90;;;;;;6246700;23;20000;-80
2023/03/17 08:19:02;;;;;;;8.57;6.78;;;12.00;65.80;;;;;;6246645;23;20000;-81
2023/03/17 08:21:28;;;;;;;11.45;7.55;;;12.20;65.60;;;;;;6219398;23;20061;-81
2023/03/17 08:23:55;;;;;;;15.27;7.03;;;12.30;62.10;;;;;;6246418;23;20028;-78
2023/03/17 08:26:21;;;;;;;7.82;5.93;;;12.40;61.60;;;;;;6246771;23;20008;-78
2023/03/17 08:28:49;;;;;;;10.90;5.97;;;12.60;62.50;;;;;;6246761;23;20010;-79
2023/03/17 08:31:19;;;;;;;8.68;5.93;;;12.60;62.90;;;;;;6246633;23;20063;-79
2023/03/17 08:33:51;;;;;;;8.15;5.88;;;12.80;62.80;;;;;;6246934;23;20022;-80
2023/03/17 08:36:18;;;;;;;8.43;4.65;;;13.20;64.10;;;;;;6220792;23;20334;-79
2023/03/17 08:38:45;;;;;;;8.48;5.18;;;13.30;65.20;;;;;;6246937;23;20008;-79
2023/03/17 08:41:15;;;;;;;8.07;5.45;;;13.70;66.30;;;;;;6247178;23;20044;-79
2023/03/17 08:43:42;;;;;;;7.07;5.53;;;14.00;65.40;;;;;;6247495;23;20004;-80
2023/03/17 08:46:23;;;;;;;8.88;5.40;;;14.30;60.70;;;;;;6246921;23;20030;-79
2023/03/17 08:48:51;;;;;;;7.57;5.38;;;;;;;;;;6247523;23;20303;-79
2023/03/17 08:51:17;;;;;;;8.23;5.50;;;14.30;59.70;;;;;;6248622;23;20004;-81
2023/03/17 08:53:43;;;;;;;6.65;5.32;;;14.50;59.20;;;;;;6258463;23;19984;-80
2023/03/17 08:56:09;;;;;;;8.40;5.22;;;14.50;58.90;;;;;;6259375;23;20012;-78
2023/03/17 08:58:38;;;;;;;7.75;5.03;;;14.80;57.90;;;;;;6249168;23;20433;-82
2023/03/17 09:01:04;;;;;;;7.38;5.45;;;15.00;57.50;;;;;;6246883;23;20007;-83
2023/03/17 09:03:31;;;;;;;7.35;5.20;;;15.00;57.90;;;;;;6246138;23;20028;-83
2023/03/17 09:05:57;;;;;;;6.57;4.35;;;15.20;57.20;;;;;;6245867;23;20028;-83
2023/03/17 09:08:23;;;;;;;6.90;4.13;;;15.40;59.20;;;;;;6246745;23;20296;-83
2023/03/17 09:10:50;;;;;;;5.88;4.90;;;15.60;59.70;;;;;;6243085;23;20004;-82
2023/03/17 09:13:17;;;;;;;7.30;4.68;;;;;;;;;;6245445;23;20000;-82
2023/03/17 09:15:44;;;;;;;7.15;4.60;;;15.90;56.10;;;;;;6246825;23;20007;-82
2023/03/17 09:18:11;;;;;;;7.45;4.78;;;16.00;56.00;;;;;;6245292;23;20004;-80
2023/03/17 09:20:37;;;;;;;6.50;4.82;;;16.20;54.30;;;;;;6245996;23;20403;-81
2023/03/17 09:23:07;;;;;;;5.78;4.18;;;16.30;54.70;;;;;;6242330;23;20000;-84
2023/03/17 09:25:36;;;;;;;5.72;4.57;;;16.40;54.30;;;;;;6245510;23;20085;-82
2023/03/17 09:28:02;;;;;;;6.47;4.25;;;16.50;53.60;;;;;;6244521;23;20126;-82
2023/03/17 09:30:28;;;;;;;4.70;3.63;;;16.80;51.40;;;;;;6243897;23;20004;-82
2023/03/17 09:32:54;;;;;;;6.22;3.72;;;16.80;52.00;;;;;;6246108;23;20421;-82
2023/03/17 09:35:21;;;;;;;6.10;3.85;;;16.90;51.50;;;;;;6245032;23;20004;-81
2023/03/17 09:37:47;;;;;;;6.82;3.92;;;17.10;51.40;;;;;;6242879;23;20000;-82
2023/03/17 09:40:17;;;;;;;6.03;4.45;;;17.20;50.90;;;;;;6216071;23;20330;-81
2023/03/17 09:42:50;;;;;;;5.00;3.70;;;17.40;51.30;;;;;;6240822;23;20016;-82
2023/03/17 09:45:23;;;;;;;6.25;4.05;;;17.50;53.30;;;;;;6243261;23;20316;-82
2023/03/17 09:47:54;;;;;;;3.78;3.38;;;17.60;52.90;;;;;;6242149;23;20011;-81
2023/03/17 09:50:39;;;;;;;5.22;3.95;;;17.70;50.60;;;;;;6243938;23;20359;-81
2023/03/17 09:53:17;;;;;;;10.02;5.90;;;17.80;49.00;;;;;;6244121;23;20003;-82
2023/03/17 09:55:46;;;;;;;8.93;6.68;;;17.90;50.00;;;;;;6244729;23;20008;-81
2023/03/17 09:58:12;;;;;;;11.90;6.88;;;18.00;49.80;;;;;;6243322;23;20004;-81
2023/03/17 10:00:38;;;;;;;13.85;7.10;;;18.00;50.20;;;;;;6217377;23;20069;-83
2023/03/17 10:03:08;;;;;;;10.73;6.25;;;18.00;50.30;;;;;;6244900;23;20074;-85
2023/03/17 10:05:34;;;;;;;11.65;6.65;;;18.10;48.90;;;;;;6245237;23;20004;-86
2023/03/17 10:08:27;;;;;;;7.82;6.07;;;18.20;49.40;;;;;;6241795;23;20502;-84
2023/03/17 10:11:13;;;;;;;8.23;5.60;;;18.30;47.80;;;;;;6216048;23;20012;-84
2023/03/17 10:13:57;;;;;;;11.18;4.50;;;18.40;48.70;;;;;;6243471;23;20071;-85
2023/03/17 10:16:38;;;;;;;5.82;4.53;;;18.60;49.30;;;;;;6245719;23;20004;-85
2023/03/17 10:19:46;;;;;;;9.98;5.70;;;18.80;49.00;;;;;;6242946;23;20004;-82
2023/03/17 10:22:20;;;;;;;7.45;5.63;;;18.90;46.70;;;;;;6245584;23;20012;-81
2023/03/17 10:24:51;;;;;;;8.60;6.40;;;19.00;47.50;;;;;;6245226;23;20322;-81
2023/03/17 10:27:17;;;;;;;8.20;5.97;;;19.10;47.00;;;;;;6245005;23;20000;-80
2023/03/17 10:29:43;;;;;;;8.05;5.57;;;19.40;46.40;;;;;;6245347;23;20685;-81
2023/03/17 10:32:12;;;;;;;17.05;6.25;;;19.40;47.00;;;;;;6245228;23;20003;-80
2023/03/17 10:34:38;;;;;;;7.55;5.35;;;19.50;46.60;;;;;;6245175;23;20004;-79
2023/03/17 10:37:11;;;;;;;12.27;6.82;;;19.60;45.50;;;;;;6244960;23;20004;-80
2023/03/17 10:39:46;;;;;;;7.75;5.72;;;19.70;45.60;;;;;;6244962;23;19996;-81
2023/03/17 10:42:25;;;;;;;8.38;5.88;;;19.90;44.30;;;;;;6244728;23;20019;-81
2023/03/17 10:44:55;;;;;;;7.53;5.57;;;19.90;44.50;;;;;;6243983;23;20004;-81
2023/03/17 10:47:43;;;;;;;10.15;5.55;;;20.00;44.70;;;;;;6245390;23;20000;-83
2023/03/17 10:50:30;;;;;;;9.45;5.55;;;20.20;43.60;;;;;;6242842;23;20003;-85
2023/03/17 10:53:02;;;;;;;6.53;4.93;;;20.30;43.10;;;;;;6245208;23;20075;-81
2023/03/17 10:55:37;;;;;;;7.13;5.57;;;20.40;41.90;;;;;;6245203;23;20007;-81
2023/03/17 10:58:06;;;;;;;7.15;4.18;;;20.40;40.70;;;;;;6245530;23;20342;-84
2023/03/17 11:00:37;;;;;;;5.72;3.72;;;20.50;41.20;;;;;;6245384;23;20011;-84
2023/03/17 11:03:21;;;;;;;4.80;3.58;;;20.40;39.50;;;;;;6245114;23;20004;-84
2023/03/17 11:06:02;;;;;;;3.53;2.53;;;20.40;39.00;;;;;;6245352;23;20369;-84
2023/03/17 11:08:54;;;;;;;6.13;3.90;;;20.40;39.10;;;;;;6218709;23;20007;-84
2023/03/17 11:11:26;;;;;;;4.72;3.10;;;20.40;38.70;;;;;;6244952;23;20075;-84
2023/03/17 11:14:12;;;;;;;6.60;3.17;;;20.50;37.50;;;;;;6244859;23;20028;-85
2023/03/17 11:16:48;;;;;;;3.15;2.30;;;20.50;39.20;;;;;;6245004;23;20023;-85
2023/03/17 11:19:16;;;;;;;3.83;2.95;;;20.80;38.70;;;;;;6240806;23;20103;-81
2023/03/17 11:21:47;;;;;;;5.82;3.50;;;21.00;37.30;;;;;;6211033;23;20062;-81
2023/03/17 11:24:29;;;;;;;4.18;3.38;;;21.00;38.00;;;;;;6217255;23;20008;-81
2023/03/17 11:27:04;;;;;;;5.70;3.70;;;21.00;36.80;;;;;;6244907;23;20012;-81
2023/03/17 11:29:38;;;;;;;6.70;4.72;;;;;;;;;;6245819;23;20046;-81
2023/03/17 11:32:04;;;;;;;9.60;4.30;;;21.30;38.30;;;;;;6244983;23;20004;-81
2023/03/17 11:34:50;;;;;;;6.28;4.65;;;21.60;38.00;;;;;;6218537;23;20031;-81
2023/03/17 11:37:34;;;;;;;8.25;4.72;;;21.60;37.50;;;;;;6245249;23;20003;-81
2023/03/17 11:40:14;;;;;;;4.95;4.10;;;22.00;38.60;;;;;;6244351;23;20027;-81
2023/03/17 11:43:08;;;;;;;5.80;3.90;;;22.00;38.30;;;;;;6217498;23;20022;-81
2023/03/17 11:45:51;;;;;;;5.47;4.00;;;22.60;37.60;;;;;;6244866;23;20008;-79
2023/03/17 11:48:26;;;;;;;10.73;4.38;;;23.90;36.90;;;;;;6245880;23;19997;-82
2023/03/17 11:51:07;;;;;;;7.63;4.38;;;25.10;36.30;;;;;;6246431;23;20031;-84
2023/03/17 11:53:35;;;;;;;;;;;26.20;35.70;;;;;;6247423;23;20000;-82
2023/03/17 11:56:14;;;;;;;4.60;3.70;;;27.20;33.90;;;;;;6246873;23;20357;-82
2023/03/17 11:58:47;;;;;;;6.60;3.88;;;28.00;34.10;;;;;;6244367;23;20004;-83
2023/03/17 12:01:18;;;;;;;4.47;3.33;;;28.70;33.40;;;;;;6247002;23;20015;-83
2023/03/17 12:03:51;;;;;;;8.43;3.45;;;29.20;32.30;;;;;;6247147;23;20004;-84
2023/03/17 12:06:25;;;;;;;4.55;3.55;;;29.80;30.70;;;;;;6246766;23;20008;-83
2023/03/17 12:09:06;;;;;;;4.47;3.55;;;29.90;31.00;;;;;;6245688;23;19996;-84
2023/03/17 12:11:36;;;;;;;4.38;3.50;;;30.20;30.60;;;;;;6246461;23;20292;-84
2023/03/17 12:14:05;;;;;;;5.15;3.40;;;30.30;29.70;;;;;;6246796;23;20482;-84
2023/03/17 12:16:46;;;;;;;3.97;3.05;;;30.50;28.90;;;;;;6244698;23;20039;-82
2023/03/17 12:19:12;;;;;;;4.07;3.00;;;30.50;29.30;;;;;;6245407;23;20011;-83
2023/03/17 12:21:46;;;;;;;2.65;2.45;;;30.50;28.90;;;;;;6245566;23;20012;-84
2023/03/17 12:24:24;;;;;;;2.92;2.53;;;30.40;28.80;;;;;;6246454;23;20015;-83
2023/03/17 12:26:53;;;;;;;4.47;2.42;;;30.30;28.20;;;;;;6245660;23;20009;-83
2023/03/17 12:29:51;;;;;;;4.85;2.83;;;30.00;28.30;;;;;;6246060;23;19996;-82
2023/03/17 12:32:35;;;;;;;5.72;2.92;;;29.70;28.10;;;;;;6220206;23;20008;-83
2023/03/17 12:35:27;;;;;;;4.53;2.75;;;29.50;28.40;;;;;;6246144;23;20008;-82
2023/03/17 12:37:55;;;;;;;5.88;3.17;;;29.30;28.10;;;;;;6202852;23;20008;-82
2023/03/17 12:40:33;;;;;;;5.13;3.08;;;29.20;28.10;;;;;;6245918;23;20039;-83
2023/03/17 12:43:29;;;;;;;5.13;3.70;;;29.20;28.20;;;;;;6245382;23;20012;-81
2023/03/17 12:46:01;;;;;;;8.60;3.67;;;29.10;27.80;;;;;;6241678;23;20056;-81
2023/03/17 12:48:50;;;;;;;8.75;3.67;;;29.20;28.10;;;;;;6243200;23;20062;-82
2023/03/17 12:51:48;;;;;;;5.63;3.17;;;29.30;27.30;;;;;;6172280;23;20008;-82
2023/03/17 12:54:23;;;;;;;6.43;3.75;;;29.30;27.70;;;;;;6135385;23;20555;-82
2023/03/17 12:56:49;;;;;;;6.70;3.42;;;29.40;27.60;;;;;;6243598;23;20008;-82
2023/03/17 12:59:24;;;;;;;5.32;4.15;;;29.50;27.80;;;;;;6242951;23;20008;-81